sensor_id;sensor_type;location;lat;lon;timestamp;P1;durP1;ratioP1;P2;durP2;ratioP2
30068;SDS011;16894;49.456;10.644;2023-07-31T00:00:27;70.00;;;65.77;;
30068;SDS011;16894;49.456;10.644;2023-07-31T00:02:53;68.57;;;63.77;;
30068;SDS011;16894;49.456;10.644;2023-07-31T00:07:45;66.20;;;61.75;;
30068;SDS011;16894;49.456;10.644;2023-07-31T00:10:11;57.47;;;53.72;;
30068;SDS011;16894;49.456;10.644;2023-07-31T00:12:38;60.70;;;56.97;;
30068;SDS011;16894;49.456;10.644;2023-07-31T00:15:05;56.35;;;52.85;;
30068;SDS011;16894;49.456;10.644;2023-07-31T00:17:31;65.57;;;61.28;;
30068;SDS011;16894;49.456;10.644;2023-07-31T00:19:57;63.42;;;59.38;;
30068;SDS011;16894;49.456;10.644;2023-07-31T00:22:23;58.70;;;54.60;;
30068;SDS011;16894;49.456;10.644;2023-07-31T00:24:49;63.77;;;59.33;;
30068;SDS011;16894;49.456;10.644;2023-07-31T00:27:15;53.63;;;50.15;;
30068;SDS011;16894;49.456;10.644;2023-07-31T00:29:40;54.53;;;51.17;;
30068;SDS011;16894;49.456;10.644;2023-07-31T00:32:06;52.80;;;49.00;;
30068;SDS011;16894;49.456;10.644;2023-07-31T00:34:32;57.65;;;54.20;;
30068;SDS011;16894;49.456;10.644;2023-07-31T00:36:58;48.33;;;45.23;;
30068;SDS011;16894;49.456;10.644;2023-07-31T00:39:23;49.77;;;46.83;;
30068;SDS011;16894;49.456;10.644;2023-07-31T00:41:49;52.77;;;49.50;;
30068;SDS011;16894;49.456;10.644;2023-07-31T00:44:14;64.20;;;60.23;;
30068;SDS011;16894;49.456;10.644;2023-07-31T00:46:40;72.68;;;68.22;;
30068;SDS011;16894;49.456;10.644;2023-07-31T00:49:06;64.03;;;60.25;;
30068;SDS011;16894;49.456;10.644;2023-07-31T00:51:33;60.00;;;55.97;;
30068;SDS011;16894;49.456;10.644;2023-07-31T00:53:59;64.07;;;59.90;;
30068;SDS011;16894;49.456;10.644;2023-07-31T00:56:25;52.65;;;49.35;;
30068;SDS011;16894;49.456;10.644;2023-07-31T00:58:52;55.30;;;51.92;;
30068;SDS011;16894;49.456;10.644;2023-07-31T01:01:18;53.13;;;49.77;;
30068;SDS011;16894;49.456;10.644;2023-07-31T01:03:44;72.78;;;67.68;;
30068;SDS011;16894;49.456;10.644;2023-07-31T01:09:17;45.35;;;41.85;;
30068;SDS011;16894;49.456;10.644;2023-07-31T01:12:00;71.60;;;67.05;;
30068;SDS011;16894;49.456;10.644;2023-07-31T01:14:28;96.55;;;90.13;;
30068;SDS011;16894;49.456;10.644;2023-07-31T01:19:21;98.68;;;91.95;;
30068;SDS011;16894;49.456;10.644;2023-07-31T01:21:56;76.57;;;71.72;;
30068;SDS011;16894;49.456;10.644;2023-07-31T01:27:42;64.75;;;60.30;;
30068;SDS011;16894;49.456;10.644;2023-07-31T01:30:16;68.63;;;63.90;;
30068;SDS011;16894;49.456;10.644;2023-07-31T01:32:46;103.60;;;97.25;;
30068;SDS011;16894;49.456;10.644;2023-07-31T01:35:13;118.97;;;111.47;;
30068;SDS011;16894;49.456;10.644;2023-07-31T01:37:40;103.45;;;97.05;;
30068;SDS011;16894;49.456;10.644;2023-07-31T01:40:05;111.63;;;104.50;;
30068;SDS011;16894;49.456;10.644;2023-07-31T01:44:58;189.98;;;178.10;;
30068;SDS011;16894;49.456;10.644;2023-07-31T01:47:24;251.70;;;236.63;;
30068;SDS011;16894;49.456;10.644;2023-07-31T01:49:49;353.40;;;331.17;;
30068;SDS011;16894;49.456;10.644;2023-07-31T01:52:15;390.20;;;365.43;;
30068;SDS011;16894;49.456;10.644;2023-07-31T01:54:41;324.67;;;303.77;;
30068;SDS011;16894;49.456;10.644;2023-07-31T01:57:06;324.57;;;302.47;;
30068;SDS011;16894;49.456;10.644;2023-07-31T01:59:32;409.50;;;382.83;;
30068;SDS011;16894;49.456;10.644;2023-07-31T02:01:58;533.13;;;497.50;;
30068;SDS011;16894;49.456;10.644;2023-07-31T02:04:23;584.67;;;543.23;;
30068;SDS011;16894;49.456;10.644;2023-07-31T02:06:49;552.13;;;514.60;;
30068;SDS011;16894;49.456;10.644;2023-07-31T02:09:15;372.10;;;347.73;;
30068;SDS011;16894;49.456;10.644;2023-07-31T02:11:40;553.87;;;516.43;;
30068;SDS011;16894;49.456;10.644;2023-07-31T02:14:06;619.20;;;575.43;;
30068;SDS011;16894;49.456;10.644;2023-07-31T02:16:32;514.33;;;479.63;;
30068;SDS011;16894;49.456;10.644;2023-07-31T02:18:58;582.13;;;542.47;;
30068;SDS011;16894;49.456;10.644;2023-07-31T02:21:23;511.40;;;476.60;;
30068;SDS011;16894;49.456;10.644;2023-07-31T02:23:49;365.60;;;342.10;;
30068;SDS011;16894;49.456;10.644;2023-07-31T02:26:14;221.93;;;207.40;;
30068;SDS011;16894;49.456;10.644;2023-07-31T02:28:40;278.30;;;260.80;;
30068;SDS011;16894;49.456;10.644;2023-07-31T02:31:08;287.77;;;269.73;;
30068;SDS011;16894;49.456;10.644;2023-07-31T02:33:34;247.20;;;231.82;;
30068;SDS011;16894;49.456;10.644;2023-07-31T02:35:59;317.98;;;297.92;;
30068;SDS011;16894;49.456;10.644;2023-07-31T02:38:25;292.13;;;273.58;;
30068;SDS011;16894;49.456;10.644;2023-07-31T02:40:51;299.77;;;280.48;;
30068;SDS011;16894;49.456;10.644;2023-07-31T02:43:17;249.52;;;233.25;;
30068;SDS011;16894;49.456;10.644;2023-07-31T02:45:42;259.43;;;242.97;;
30068;SDS011;16894;49.456;10.644;2023-07-31T02:48:08;362.27;;;339.40;;
30068;SDS011;16894;49.456;10.644;2023-07-31T02:50:34;346.98;;;324.80;;
30068;SDS011;16894;49.456;10.644;2023-07-31T02:52:59;333.97;;;312.83;;
30068;SDS011;16894;49.456;10.644;2023-07-31T02:55:25;372.10;;;349.23;;
30068;SDS011;16894;49.456;10.644;2023-07-31T02:57:51;220.90;;;206.30;;
30068;SDS011;16894;49.456;10.644;2023-07-31T03:02:43;307.63;;;287.52;;
30068;SDS011;16894;49.456;10.644;2023-07-31T03:05:09;363.53;;;340.60;;
30068;SDS011;16894;49.456;10.644;2023-07-31T03:07:34;416.75;;;390.20;;
30068;SDS011;16894;49.456;10.644;2023-07-31T03:10:00;455.73;;;426.83;;
30068;SDS011;16894;49.456;10.644;2023-07-31T03:12:26;543.85;;;506.70;;
30068;SDS011;16894;49.456;10.644;2023-07-31T03:14:52;316.50;;;296.85;;
30068;SDS011;16894;49.456;10.644;2023-07-31T03:17:18;393.83;;;369.13;;
30068;SDS011;16894;49.456;10.644;2023-07-31T03:19:43;412.33;;;385.77;;
30068;SDS011;16894;49.456;10.644;2023-07-31T03:22:09;485.50;;;453.80;;
30068;SDS011;16894;49.456;10.644;2023-07-31T03:24:35;460.47;;;429.27;;
30068;SDS011;16894;49.456;10.644;2023-07-31T03:27:00;399.40;;;373.83;;
30068;SDS011;16894;49.456;10.644;2023-07-31T03:29:26;399.97;;;373.97;;
30068;SDS011;16894;49.456;10.644;2023-07-31T03:31:52;294.02;;;274.77;;
30068;SDS011;16894;49.456;10.644;2023-07-31T03:34:17;280.83;;;263.27;;
30068;SDS011;16894;49.456;10.644;2023-07-31T03:36:43;387.70;;;362.37;;
30068;SDS011;16894;49.456;10.644;2023-07-31T03:39:09;313.90;;;293.70;;
30068;SDS011;16894;49.456;10.644;2023-07-31T03:41:35;252.30;;;236.23;;
30068;SDS011;16894;49.456;10.644;2023-07-31T03:44:00;179.97;;;168.43;;
30068;SDS011;16894;49.456;10.644;2023-07-31T03:46:26;118.25;;;110.72;;
30068;SDS011;16894;49.456;10.644;2023-07-31T03:48:52;119.95;;;112.45;;
30068;SDS011;16894;49.456;10.644;2023-07-31T03:51:17;101.33;;;94.83;;
30068;SDS011;16894;49.456;10.644;2023-07-31T03:53:44;70.95;;;66.50;;
30068;SDS011;16894;49.456;10.644;2023-07-31T03:56:10;88.93;;;83.10;;
30068;SDS011;16894;49.456;10.644;2023-07-31T03:58:35;91.93;;;86.03;;
30068;SDS011;16894;49.456;10.644;2023-07-31T04:01:02;84.15;;;78.75;;
30068;SDS011;16894;49.456;10.644;2023-07-31T04:03:28;89.82;;;84.18;;
30068;SDS011;16894;49.456;10.644;2023-07-31T04:08:23;92.55;;;86.40;;
30068;SDS011;16894;49.456;10.644;2023-07-31T04:10:48;65.70;;;61.50;;
30068;SDS011;16894;49.456;10.644;2023-07-31T04:13:14;62.70;;;58.58;;
30068;SDS011;16894;49.456;10.644;2023-07-31T04:15:40;65.82;;;61.63;;
30068;SDS011;16894;49.456;10.644;2023-07-31T04:18:06;55.53;;;51.65;;
30068;SDS011;16894;49.456;10.644;2023-07-31T04:20:32;62.38;;;58.13;;
30068;SDS011;16894;49.456;10.644;2023-07-31T04:22:58;62.78;;;58.70;;
30068;SDS011;16894;49.456;10.644;2023-07-31T04:25:23;65.97;;;61.85;;
30068;SDS011;16894;49.456;10.644;2023-07-31T04:27:49;59.33;;;55.70;;
30068;SDS011;16894;49.456;10.644;2023-07-31T04:30:15;62.33;;;58.10;;
30068;SDS011;16894;49.456;10.644;2023-07-31T04:32:40;61.30;;;57.20;;
30068;SDS011;16894;49.456;10.644;2023-07-31T04:35:06;62.80;;;58.40;;
30068;SDS011;16894;49.456;10.644;2023-07-31T04:37:32;58.80;;;54.63;;
30068;SDS011;16894;49.456;10.644;2023-07-31T04:39:58;50.67;;;47.35;;
30068;SDS011;16894;49.456;10.644;2023-07-31T04:42:23;51.03;;;47.60;;
30068;SDS011;16894;49.456;10.644;2023-07-31T04:44:49;66.87;;;61.67;;
30068;SDS011;16894;49.456;10.644;2023-07-31T04:47:15;53.73;;;49.73;;
30068;SDS011;16894;49.456;10.644;2023-07-31T04:49:40;64.33;;;59.77;;
30068;SDS011;16894;49.456;10.644;2023-07-31T04:52:06;94.90;;;88.83;;
30068;SDS011;16894;49.456;10.644;2023-07-31T04:54:32;106.63;;;99.33;;
30068;SDS011;16894;49.456;10.644;2023-07-31T04:56:57;135.63;;;127.20;;
30068;SDS011;16894;49.456;10.644;2023-07-31T04:59:23;148.87;;;139.60;;
30068;SDS011;16894;49.456;10.644;2023-07-31T05:01:48;146.43;;;136.63;;
30068;SDS011;16894;49.456;10.644;2023-07-31T05:04:14;163.53;;;150.40;;
30068;SDS011;16894;49.456;10.644;2023-07-31T05:06:40;108.10;;;100.40;;
30068;SDS011;16894;49.456;10.644;2023-07-31T05:09:06;256.55;;;238.50;;
30068;SDS011;16894;49.456;10.644;2023-07-31T05:11:32;321.77;;;298.73;;
30068;SDS011;16894;49.456;10.644;2023-07-31T05:13:58;487.90;;;452.88;;
30068;SDS011;16894;49.456;10.644;2023-07-31T05:16:23;480.07;;;446.87;;
30068;SDS011;16894;49.456;10.644;2023-07-31T05:18:49;503.03;;;469.40;;
30068;SDS011;16894;49.456;10.644;2023-07-31T05:21:15;539.63;;;503.13;;
30068;SDS011;16894;49.456;10.644;2023-07-31T05:23:40;550.47;;;513.57;;
30068;SDS011;16894;49.456;10.644;2023-07-31T05:26:06;719.20;;;665.83;;
30068;SDS011;16894;49.456;10.644;2023-07-31T05:28:34;822.75;;;759.92;;
30068;SDS011;16894;49.456;10.644;2023-07-31T05:31:01;914.33;;;841.60;;
30068;SDS011;16894;49.456;10.644;2023-07-31T05:33:27;998.97;;;914.22;;
30068;SDS011;16894;49.456;10.644;2023-07-31T05:35:53;1076.95;;;979.22;;
30068;SDS011;16894;49.456;10.644;2023-07-31T05:38:19;1049.60;;;955.45;;
30068;SDS011;16894;49.456;10.644;2023-07-31T05:40:45;1407.97;;;999.90;;
30068;SDS011;16894;49.456;10.644;2023-07-31T05:43:10;1239.20;;;999.90;;
30068;SDS011;16894;49.456;10.644;2023-07-31T05:45:36;1384.37;;;999.90;;
30068;SDS011;16894;49.456;10.644;2023-07-31T05:48:02;1441.43;;;999.90;;
30068;SDS011;16894;49.456;10.644;2023-07-31T05:50:28;1547.25;;;999.90;;
30068;SDS011;16894;49.456;10.644;2023-07-31T05:52:53;1459.60;;;999.90;;
30068;SDS011;16894;49.456;10.644;2023-07-31T05:55:19;1363.40;;;999.90;;
30068;SDS011;16894;49.456;10.644;2023-07-31T06:00:11;1486.18;;;999.90;;
30068;SDS011;16894;49.456;10.644;2023-07-31T06:02:38;1439.45;;;999.90;;
30068;SDS011;16894;49.456;10.644;2023-07-31T06:05:04;1511.85;;;999.90;;
30068;SDS011;16894;49.456;10.644;2023-07-31T06:07:33;1363.18;;;999.90;;
30068;SDS011;16894;49.456;10.644;2023-07-31T06:09:59;1205.13;;;999.90;;
30068;SDS011;16894;49.456;10.644;2023-07-31T06:12:33;1225.68;;;999.90;;
30068;SDS011;16894;49.456;10.644;2023-07-31T06:14:59;1444.65;;;999.90;;
30068;SDS011;16894;49.456;10.644;2023-07-31T06:17:26;1428.82;;;999.90;;
30068;SDS011;16894;49.456;10.644;2023-07-31T06:22:18;1222.75;;;999.90;;
30068;SDS011;16894;49.456;10.644;2023-07-31T06:24:43;1591.32;;;999.90;;
30068;SDS011;16894;49.456;10.644;2023-07-31T06:27:10;1225.40;;;999.90;;
30068;SDS011;16894;49.456;10.644;2023-07-31T06:29:36;1351.07;;;999.90;;
30068;SDS011;16894;49.456;10.644;2023-07-31T06:32:02;1221.90;;;999.90;;
30068;SDS011;16894;49.456;10.644;2023-07-31T06:34:28;1281.25;;;999.90;;
30068;SDS011;16894;49.456;10.644;2023-07-31T06:36:54;1414.85;;;999.90;;
30068;SDS011;16894;49.456;10.644;2023-07-31T06:39:21;1590.82;;;999.90;;
30068;SDS011;16894;49.456;10.644;2023-07-31T06:41:46;1386.78;;;999.90;;
30068;SDS011;16894;49.456;10.644;2023-07-31T06:44:12;1599.35;;;999.90;;
30068;SDS011;16894;49.456;10.644;2023-07-31T06:46:38;1521.03;;;999.90;;
30068;SDS011;16894;49.456;10.644;2023-07-31T06:49:03;1705.20;;;999.90;;
30068;SDS011;16894;49.456;10.644;2023-07-31T06:51:29;1882.80;;;999.90;;
30068;SDS011;16894;49.456;10.644;2023-07-31T06:53:56;1999.90;;;999.90;;
30068;SDS011;16894;49.456;10.644;2023-07-31T06:56:25;1999.90;;;999.90;;
30068;SDS011;16894;49.456;10.644;2023-07-31T06:58:51;1999.90;;;999.90;;
30068;SDS011;16894;49.456;10.644;2023-07-31T07:01:17;1984.33;;;999.90;;
30068;SDS011;16894;49.456;10.644;2023-07-31T07:03:42;1999.90;;;999.90;;
30068;SDS011;16894;49.456;10.644;2023-07-31T07:06:08;1999.90;;;999.90;;
30068;SDS011;16894;49.456;10.644;2023-07-31T07:08:33;1999.90;;;999.90;;
30068;SDS011;16894;49.456;10.644;2023-07-31T07:10:59;1999.90;;;999.90;;
30068;SDS011;16894;49.456;10.644;2023-07-31T07:13:25;1999.90;;;999.90;;
30068;SDS011;16894;49.456;10.644;2023-07-31T07:15:50;1999.90;;;999.90;;
30068;SDS011;16894;49.456;10.644;2023-07-31T07:18:16;1999.90;;;999.90;;
30068;SDS011;16894;49.456;10.644;2023-07-31T07:20:47;1999.90;;;999.90;;
30068;SDS011;16894;49.456;10.644;2023-07-31T07:23:16;1999.90;;;999.90;;
30068;SDS011;16894;49.456;10.644;2023-07-31T07:25:42;1999.90;;;999.90;;
30068;SDS011;16894;49.456;10.644;2023-07-31T07:28:09;1999.90;;;999.90;;
30068;SDS011;16894;49.456;10.644;2023-07-31T07:30:36;1999.90;;;999.90;;
30068;SDS011;16894;49.456;10.644;2023-07-31T07:33:02;1999.90;;;999.90;;
30068;SDS011;16894;49.456;10.644;2023-07-31T07:35:27;1999.90;;;999.90;;
30068;SDS011;16894;49.456;10.644;2023-07-31T07:37:54;1999.90;;;999.90;;
30068;SDS011;16894;49.456;10.644;2023-07-31T07:40:20;1999.90;;;999.90;;
30068;SDS011;16894;49.456;10.644;2023-07-31T07:42:46;1999.90;;;999.90;;
30068;SDS011;16894;49.456;10.644;2023-07-31T07:45:12;1999.90;;;999.90;;
30068;SDS011;16894;49.456;10.644;2023-07-31T07:47:40;1999.90;;;999.90;;
30068;SDS011;16894;49.456;10.644;2023-07-31T07:50:06;1999.90;;;999.90;;
30068;SDS011;16894;49.456;10.644;2023-07-31T07:52:32;1999.90;;;999.90;;
30068;SDS011;16894;49.456;10.644;2023-07-31T07:54:58;1999.90;;;999.90;;
30068;SDS011;16894;49.456;10.644;2023-07-31T07:57:25;1999.90;;;999.90;;
30068;SDS011;16894;49.456;10.644;2023-07-31T07:59:51;1999.90;;;999.90;;
30068;SDS011;16894;49.456;10.644;2023-07-31T08:02:16;1999.90;;;999.90;;
30068;SDS011;16894;49.456;10.644;2023-07-31T08:04:42;1766.50;;;881.13;;
30068;SDS011;16894;49.456;10.644;2023-07-31T08:07:07;1999.90;;;999.90;;
30068;SDS011;16894;49.456;10.644;2023-07-31T08:09:36;1999.90;;;999.90;;
30068;SDS011;16894;49.456;10.644;2023-07-31T08:12:01;1999.90;;;999.90;;
30068;SDS011;16894;49.456;10.644;2023-07-31T08:14:28;1999.90;;;999.90;;
30068;SDS011;16894;49.456;10.644;2023-07-31T08:16:54;1999.90;;;999.90;;
30068;SDS011;16894;49.456;10.644;2023-07-31T08:19:20;1999.90;;;999.90;;
30068;SDS011;16894;49.456;10.644;2023-07-31T08:21:46;1999.90;;;999.90;;
30068;SDS011;16894;49.456;10.644;2023-07-31T08:24:11;1999.90;;;999.90;;
30068;SDS011;16894;49.456;10.644;2023-07-31T08:26:37;1557.00;;;732.75;;
30068;SDS011;16894;49.456;10.644;2023-07-31T08:29:03;1999.90;;;999.90;;
30068;SDS011;16894;49.456;10.644;2023-07-31T08:31:28;1999.90;;;999.90;;
30068;SDS011;16894;49.456;10.644;2023-07-31T08:33:54;1524.90;;;710.85;;
30068;SDS011;16894;49.456;10.644;2023-07-31T08:36:20;1999.90;;;999.90;;
30068;SDS011;16894;49.456;10.644;2023-07-31T08:38:46;1999.90;;;999.90;;
30068;SDS011;16894;49.456;10.644;2023-07-31T08:41:12;1999.90;;;999.90;;
30068;SDS011;16894;49.456;10.644;2023-07-31T08:43:42;1621.95;;;754.15;;
30068;SDS011;16894;49.456;10.644;2023-07-31T08:46:10;1999.90;;;999.90;;
30068;SDS011;16894;49.456;10.644;2023-07-31T08:48:35;1999.90;;;999.90;;
30068;SDS011;16894;49.456;10.644;2023-07-31T08:51:03;1849.28;;;858.13;;
30068;SDS011;16894;49.456;10.644;2023-07-31T08:53:29;1509.40;;;714.85;;
30068;SDS011;16894;49.456;10.644;2023-07-31T08:55:55;1999.90;;;999.90;;
30068;SDS011;16894;49.456;10.644;2023-07-31T08:58:23;1999.90;;;999.90;;
30068;SDS011;16894;49.456;10.644;2023-07-31T09:00:50;1999.90;;;999.90;;
30068;SDS011;16894;49.456;10.644;2023-07-31T09:03:17;1999.90;;;999.90;;
30068;SDS011;16894;49.456;10.644;2023-07-31T09:05:44;1999.90;;;999.90;;
30068;SDS011;16894;49.456;10.644;2023-07-31T09:08:15;1999.90;;;999.90;;
30068;SDS011;16894;49.456;10.644;2023-07-31T09:10:45;1999.90;;;999.90;;
30068;SDS011;16894;49.456;10.644;2023-07-31T09:13:14;1999.90;;;999.90;;
30068;SDS011;16894;49.456;10.644;2023-07-31T09:15:41;1999.90;;;999.90;;
30068;SDS011;16894;49.456;10.644;2023-07-31T09:18:09;1999.90;;;999.90;;
30068;SDS011;16894;49.456;10.644;2023-07-31T09:20:35;1999.90;;;999.90;;
30068;SDS011;16894;49.456;10.644;2023-07-31T09:23:12;1999.90;;;999.90;;
30068;SDS011;16894;49.456;10.644;2023-07-31T09:25:39;1999.90;;;999.90;;
30068;SDS011;16894;49.456;10.644;2023-07-31T09:28:08;1999.90;;;999.90;;
30068;SDS011;16894;49.456;10.644;2023-07-31T09:30:48;1999.90;;;999.90;;
30068;SDS011;16894;49.456;10.644;2023-07-31T09:33:17;1999.90;;;999.90;;
30068;SDS011;16894;49.456;10.644;2023-07-31T09:35:44;1999.90;;;999.90;;
30068;SDS011;16894;49.456;10.644;2023-07-31T09:38:10;1999.90;;;999.90;;
30068;SDS011;16894;49.456;10.644;2023-07-31T09:40:44;1999.90;;;999.90;;
30068;SDS011;16894;49.456;10.644;2023-07-31T09:43:11;1999.90;;;999.90;;
30068;SDS011;16894;49.456;10.644;2023-07-31T09:45:40;1999.90;;;999.90;;
30068;SDS011;16894;49.456;10.644;2023-07-31T09:48:10;1999.90;;;999.90;;
30068;SDS011;16894;49.456;10.644;2023-07-31T09:50:38;1999.90;;;999.90;;
30068;SDS011;16894;49.456;10.644;2023-07-31T09:53:05;1999.90;;;999.90;;
30068;SDS011;16894;49.456;10.644;2023-07-31T09:55:31;1999.90;;;999.90;;
30068;SDS011;16894;49.456;10.644;2023-07-31T10:00:23;1999.90;;;999.90;;
30068;SDS011;16894;49.456;10.644;2023-07-31T10:02:53;1999.90;;;999.90;;
30068;SDS011;16894;49.456;10.644;2023-07-31T10:05:23;1999.90;;;999.90;;
30068;SDS011;16894;49.456;10.644;2023-07-31T10:07:53;1999.90;;;999.90;;
30068;SDS011;16894;49.456;10.644;2023-07-31T10:10:21;1999.90;;;999.90;;
30068;SDS011;16894;49.456;10.644;2023-07-31T10:12:48;1999.90;;;999.90;;
30068;SDS011;16894;49.456;10.644;2023-07-31T10:15:18;1999.90;;;999.90;;
30068;SDS011;16894;49.456;10.644;2023-07-31T10:17:46;1999.90;;;999.90;;
30068;SDS011;16894;49.456;10.644;2023-07-31T10:20:13;1999.90;;;999.90;;
30068;SDS011;16894;49.456;10.644;2023-07-31T10:22:41;1999.90;;;999.90;;
30068;SDS011;16894;49.456;10.644;2023-07-31T10:25:09;1999.90;;;999.90;;
30068;SDS011;16894;49.456;10.644;2023-07-31T10:30:02;1999.90;;;999.90;;
30068;SDS011;16894;49.456;10.644;2023-07-31T10:32:31;1999.90;;;999.90;;
30068;SDS011;16894;49.456;10.644;2023-07-31T10:34:57;1999.90;;;999.90;;
30068;SDS011;16894;49.456;10.644;2023-07-31T10:40:06;1999.90;;;999.90;;
30068;SDS011;16894;49.456;10.644;2023-07-31T10:42:54;1999.90;;;999.90;;
30068;SDS011;16894;49.456;10.644;2023-07-31T10:45:35;1999.90;;;999.90;;
30068;SDS011;16894;49.456;10.644;2023-07-31T10:48:06;1999.90;;;999.90;;
30068;SDS011;16894;49.456;10.644;2023-07-31T10:50:38;1999.90;;;999.90;;
30068;SDS011;16894;49.456;10.644;2023-07-31T10:53:22;1999.90;;;999.90;;
30068;SDS011;16894;49.456;10.644;2023-07-31T10:55:58;1999.90;;;999.90;;
30068;SDS011;16894;49.456;10.644;2023-07-31T10:58:24;1999.90;;;999.90;;
30068;SDS011;16894;49.456;10.644;2023-07-31T11:00:50;1999.90;;;999.90;;
30068;SDS011;16894;49.456;10.644;2023-07-31T11:03:24;1999.90;;;999.90;;
30068;SDS011;16894;49.456;10.644;2023-07-31T11:08:30;1999.90;;;999.90;;
30068;SDS011;16894;49.456;10.644;2023-07-31T11:13:45;1999.90;;;999.90;;
30068;SDS011;16894;49.456;10.644;2023-07-31T11:16:11;1999.90;;;999.90;;
30068;SDS011;16894;49.456;10.644;2023-07-31T11:18:38;1999.90;;;999.90;;
30068;SDS011;16894;49.456;10.644;2023-07-31T11:21:08;1999.90;;;999.90;;
30068;SDS011;16894;49.456;10.644;2023-07-31T11:23:38;1999.90;;;999.90;;
30068;SDS011;16894;49.456;10.644;2023-07-31T11:26:04;1999.90;;;999.90;;
30068;SDS011;16894;49.456;10.644;2023-07-31T11:28:31;1999.90;;;999.90;;
30068;SDS011;16894;49.456;10.644;2023-07-31T11:30:58;1999.90;;;999.90;;
30068;SDS011;16894;49.456;10.644;2023-07-31T11:33:25;1999.90;;;999.90;;
30068;SDS011;16894;49.456;10.644;2023-07-31T11:35:51;1999.90;;;999.90;;
30068;SDS011;16894;49.456;10.644;2023-07-31T11:40:51;1999.90;;;999.90;;
30068;SDS011;16894;49.456;10.644;2023-07-31T11:43:18;1999.90;;;999.90;;
30068;SDS011;16894;49.456;10.644;2023-07-31T11:45:45;1999.90;;;999.90;;
30068;SDS011;16894;49.456;10.644;2023-07-31T11:48:22;1999.90;;;999.90;;
30068;SDS011;16894;49.456;10.644;2023-07-31T11:50:51;1999.90;;;999.90;;
30068;SDS011;16894;49.456;10.644;2023-07-31T11:53:20;1999.90;;;999.90;;
30068;SDS011;16894;49.456;10.644;2023-07-31T11:55:51;1999.90;;;999.90;;
30068;SDS011;16894;49.456;10.644;2023-07-31T11:58:17;1999.90;;;999.90;;
30068;SDS011;16894;49.456;10.644;2023-07-31T12:00:44;1999.90;;;999.90;;
30068;SDS011;16894;49.456;10.644;2023-07-31T12:03:11;1999.90;;;999.90;;
30068;SDS011;16894;49.456;10.644;2023-07-31T12:05:37;1999.90;;;999.90;;
30068;SDS011;16894;49.456;10.644;2023-07-31T12:08:11;1999.90;;;999.90;;
30068;SDS011;16894;49.456;10.644;2023-07-31T12:10:37;1999.90;;;999.90;;
30068;SDS011;16894;49.456;10.644;2023-07-31T12:13:05;1999.90;;;999.90;;
30068;SDS011;16894;49.456;10.644;2023-07-31T12:15:38;1999.90;;;999.90;;
30068;SDS011;16894;49.456;10.644;2023-07-31T12:18:08;1999.90;;;999.90;;
30068;SDS011;16894;49.456;10.644;2023-07-31T12:20:40;1999.90;;;999.90;;
30068;SDS011;16894;49.456;10.644;2023-07-31T12:23:14;1999.90;;;999.90;;
30068;SDS011;16894;49.456;10.644;2023-07-31T12:25:40;1999.90;;;999.90;;
30068;SDS011;16894;49.456;10.644;2023-07-31T12:30:36;1999.90;;;999.90;;
30068;SDS011;16894;49.456;10.644;2023-07-31T12:33:13;1999.90;;;999.90;;
30068;SDS011;16894;49.456;10.644;2023-07-31T12:38:06;1999.90;;;999.90;;
30068;SDS011;16894;49.456;10.644;2023-07-31T12:40:32;1999.90;;;999.90;;
30068;SDS011;16894;49.456;10.644;2023-07-31T12:43:00;1999.90;;;999.90;;
30068;SDS011;16894;49.456;10.644;2023-07-31T12:45:27;1999.90;;;999.90;;
30068;SDS011;16894;49.456;10.644;2023-07-31T12:47:53;1999.90;;;999.90;;
30068;SDS011;16894;49.456;10.644;2023-07-31T12:50:18;1999.90;;;999.90;;
30068;SDS011;16894;49.456;10.644;2023-07-31T12:55:10;1999.90;;;999.90;;
30068;SDS011;16894;49.456;10.644;2023-07-31T12:57:36;1999.90;;;999.90;;
30068;SDS011;16894;49.456;10.644;2023-07-31T13:02:28;1999.90;;;999.90;;
30068;SDS011;16894;49.456;10.644;2023-07-31T13:07:21;1999.90;;;999.90;;
30068;SDS011;16894;49.456;10.644;2023-07-31T13:09:47;1999.90;;;999.90;;
30068;SDS011;16894;49.456;10.644;2023-07-31T13:14:38;1999.90;;;999.90;;
30068;SDS011;16894;49.456;10.644;2023-07-31T13:19:30;1999.90;;;999.90;;
30068;SDS011;16894;49.456;10.644;2023-07-31T13:21:55;1999.90;;;999.90;;
30068;SDS011;16894;49.456;10.644;2023-07-31T13:26:46;1999.90;;;999.90;;
30068;SDS011;16894;49.456;10.644;2023-07-31T13:31:38;1999.90;;;999.90;;
30068;SDS011;16894;49.456;10.644;2023-07-31T13:34:03;1999.90;;;999.90;;
30068;SDS011;16894;49.456;10.644;2023-07-31T13:36:29;1999.90;;;999.90;;
30068;SDS011;16894;49.456;10.644;2023-07-31T13:41:20;1999.90;;;999.90;;
30068;SDS011;16894;49.456;10.644;2023-07-31T13:43:46;1999.90;;;999.90;;
30068;SDS011;16894;49.456;10.644;2023-07-31T13:46:11;1999.90;;;999.90;;
30068;SDS011;16894;49.456;10.644;2023-07-31T13:51:03;1999.90;;;999.90;;
30068;SDS011;16894;49.456;10.644;2023-07-31T13:53:29;1999.90;;;999.90;;
30068;SDS011;16894;49.456;10.644;2023-07-31T13:58:20;1999.90;;;999.90;;
30068;SDS011;16894;49.456;10.644;2023-07-31T14:03:11;1999.90;;;999.90;;
30068;SDS011;16894;49.456;10.644;2023-07-31T14:08:03;1999.90;;;999.90;;
30068;SDS011;16894;49.456;10.644;2023-07-31T14:12:54;1999.90;;;999.90;;
30068;SDS011;16894;49.456;10.644;2023-07-31T14:15:20;1999.90;;;999.90;;
30068;SDS011;16894;49.456;10.644;2023-07-31T14:17:45;1999.90;;;999.90;;
30068;SDS011;16894;49.456;10.644;2023-07-31T14:22:37;1999.90;;;999.90;;
30068;SDS011;16894;49.456;10.644;2023-07-31T14:25:03;1999.90;;;999.90;;
30068;SDS011;16894;49.456;10.644;2023-07-31T14:27:29;1999.90;;;999.90;;
30068;SDS011;16894;49.456;10.644;2023-07-31T14:29:54;1999.90;;;999.90;;
30068;SDS011;16894;49.456;10.644;2023-07-31T14:32:21;1999.90;;;999.90;;
30068;SDS011;16894;49.456;10.644;2023-07-31T14:34:48;1999.90;;;999.90;;
30068;SDS011;16894;49.456;10.644;2023-07-31T14:37:14;1999.90;;;999.90;;
30068;SDS011;16894;49.456;10.644;2023-07-31T14:39:39;1999.90;;;999.90;;
30068;SDS011;16894;49.456;10.644;2023-07-31T14:42:05;1999.90;;;999.90;;
30068;SDS011;16894;49.456;10.644;2023-07-31T14:44:31;1999.90;;;999.90;;
30068;SDS011;16894;49.456;10.644;2023-07-31T14:46:57;1999.90;;;999.90;;
30068;SDS011;16894;49.456;10.644;2023-07-31T14:49:22;1999.90;;;999.90;;
30068;SDS011;16894;49.456;10.644;2023-07-31T14:51:48;1999.90;;;999.90;;
30068;SDS011;16894;49.456;10.644;2023-07-31T14:54:14;1999.90;;;999.90;;
30068;SDS011;16894;49.456;10.644;2023-07-31T14:56:39;1999.90;;;999.90;;